Time;durP1;ratioP1;P1;durP2;ratioP2;P2;SDS_P1;SDS_P2;PMS_P1;PMS_P2;Temp;Humidity;BMP_temperature;BMP_pressure;BME280_temperature;BME280_humidity;BME280_pressure;Samples;Min_cycle;Max_cycle;Signal;HPM_P1;HPM_P2
2022/01/25 00:28:20;;;;;;;35.83;22.77;;;;;;;8.72;58.28;102346.44;5115546;28;20404;-91
2022/01/25 00:31:00;;;;;;;34.33;22.02;;;;;;;8.72;58.77;102342.97;5115010;28;20035;-92
2022/01/25 00:33:27;;;;;;;36.17;23.50;;;;;;;8.81;58.97;102354.97;5097113;28;20376;-92
2022/01/25 00:35:53;;;;;;;35.10;21.48;;;;;;;8.82;58.53;102351.41;5097123;28;20024;-92
2022/01/25 00:38:18;;;;;;;39.90;25.25;;;;;;;8.77;58.09;102333.22;5115678;28;20365;-91
2022/01/25 00:40:44;;;;;;;38.63;25.25;;;;;;;8.70;58.98;102329.91;5115174;28;20408;-92
2022/01/25 00:43:09;;;;;;;41.95;27.13;;;;;;;8.63;58.59;102335.38;5115035;28;20392;-91
2022/01/25 00:45:35;;;;;;;39.40;25.52;;;;;;;8.44;58.49;102335.91;5096497;28;20031;-92
2022/01/25 00:48:03;;;;;;;39.50;24.55;;;;;;;8.57;58.68;102330.31;5114800;28;20072;-91
2022/01/25 00:50:36;;;;;;;37.03;23.73;;;;;;;8.60;58.62;102330.25;5115061;28;20028;-92
2022/01/25 00:55:27;;;;;;;35.10;24.00;;;;;;;8.69;59.17;102338.69;5114962;28;20011;-91
2022/01/25 00:57:52;;;;;;;37.25;23.75;;;;;;;8.66;58.90;102330.91;5114753;28;20051;-91
2022/01/25 01:00:18;;;;;;;39.58;25.33;;;;;;;8.69;58.84;102341.31;5113171;28;20448;-92
2022/01/25 01:02:43;;;;;;;43.60;26.55;;;;;;;8.84;58.66;102341.75;5114731;28;20023;-91
2022/01/25 01:05:10;;;;;;;45.63;27.33;;;;;;;8.72;58.75;102338.59;5114904;28;20027;-91
2022/01/25 01:07:35;;;;;;;38.63;25.13;;;;;;;8.64;58.46;102345.81;5114855;28;20028;-92
2022/01/25 01:10:01;;;;;;;38.42;23.70;;;;;;;8.61;59.21;102342.41;5114544;28;20054;-91
2022/01/25 01:15:10;;;;;;;40.47;25.63;;;;;;;8.58;58.60;102338.13;5114806;28;20038;-92
2022/01/25 01:31:09;;;;;;;35.53;23.33;;;;;;;8.75;58.49;102342.91;5113613;28;20064;-92
2022/01/25 01:34:18;;;;;;;36.45;23.17;;;;;;;8.81;57.86;102344.47;5113987;28;20491;-92
2022/01/25 01:44:39;;;;;;;38.25;23.02;;;;;;;8.80;58.50;102338.38;5050989;28;20474;-92
2022/01/25 01:47:18;;;;;;;37.33;24.05;;;;;;;8.79;58.04;102334.03;5105142;28;20046;-92
2022/01/25 01:49:45;;;;;;;36.20;23.90;;;;;;;8.72;58.52;102341.19;5113437;28;20556;-92
2022/01/25 01:52:11;;;;;;;37.88;23.88;;;;;;;8.62;57.83;102334.53;5113653;28;20436;-92
2022/01/25 01:54:37;;;;;;;34.45;23.15;;;;;;;8.61;58.61;102330.19;5113753;28;20020;-91
2022/01/25 01:57:05;;;;;;;34.90;22.52;;;;;;;8.66;57.86;102330.91;5113552;28;20077;-92
2022/01/25 01:59:30;;;;;;;39.40;24.35;;;;;;;8.69;57.69;102329.97;5113712;28;20419;-92
2022/01/25 02:01:55;;;;;;;38.70;25.15;;;;;;;8.67;57.96;102326.56;5112941;28;20034;-92
2022/01/25 02:04:21;;;;;;;37.40;24.20;;;;;;;8.71;57.36;102329.03;5095254;28;20057;-92
2022/01/25 02:06:47;;;;;;;37.65;23.30;;;;;;;8.71;57.75;102333.41;5113640;28;20065;-92
2022/01/25 02:09:13;;;;;;;33.45;21.50;;;;;;;8.80;57.65;102333.13;5113455;28;20373;-92
2022/01/25 02:11:39;;;;;;;33.38;22.77;;;;;;;8.76;58.24;102335.88;5113484;28;20054;-92
2022/01/25 02:14:08;;;;;;;33.58;23.33;;;;;;;8.68;57.98;102334.34;5113260;28;20016;-92
2022/01/25 02:24:38;;;;;;;35.08;22.15;;;;;;;8.89;58.47;102329.38;5113349;28;20571;-91
2022/01/25 02:27:04;;;;;;;37.55;24.02;;;;;;;8.93;58.08;102321.38;5113160;28;20110;-91
2022/01/25 02:29:30;;;;;;;38.08;24.05;;;;;;;8.98;57.96;102323.84;5112930;28;20024;-92
2022/01/25 02:31:56;;;;;;;37.88;23.63;;;;;;;8.64;58.36;102332.72;5112768;28;20384;-92
2022/01/25 02:34:22;;;;;;;40.72;25.52;;;;;;;8.51;59.08;102329.59;5113083;28;20034;-91
2022/01/25 02:37:05;;;;;;;38.25;25.33;;;;;;;8.48;58.75;102316.59;5113055;28;20476;-91
2022/01/25 02:39:32;;;;;;;35.65;23.02;;;;;;;8.49;58.82;102312.22;5112531;28;20477;-91
2022/01/25 02:41:58;;;;;;;34.60;21.60;;;;;;;8.72;58.71;102316.78;5112765;28;20031;-92
2022/01/25 02:44:28;;;;;;;36.85;23.73;;;;;;;8.76;57.74;102317.56;5112775;28;20031;-92
2022/01/25 02:49:27;;;;;;;39.05;25.15;;;;;;;8.83;57.87;102311.25;5112665;28;20031;-91
2022/01/25 02:51:52;;;;;;;38.97;24.85;;;;;;;8.87;57.14;102302.38;5112647;28;20054;-92
2022/01/25 02:54:18;;;;;;;35.85;22.95;;;;;;;8.89;57.76;102303.19;5112440;28;20392;-91
2022/01/25 02:56:45;;;;;;;35.33;23.90;;;;;;;8.87;58.20;102298.00;5112411;28;20023;-92
2022/01/25 02:59:12;;;;;;;40.13;26.10;;;;;;;8.84;57.85;102305.94;5112454;28;20029;-92
2022/01/25 03:01:39;;;;;;;40.95;26.08;;;;;;;8.83;57.08;102303.38;5112425;28;20471;-92
2022/01/25 03:04:06;;;;;;;43.13;25.95;;;;;;;8.70;57.90;102290.63;5112527;28;20489;-91
2022/01/25 03:06:32;;;;;;;33.83;22.15;;;;;;;8.77;57.76;102306.16;5112653;28;20028;-92
2022/01/25 03:08:58;;;;;;;39.88;25.85;;;;;;;8.76;57.63;102307.06;5112429;28;20496;-91
2022/01/25 03:11:25;;;;;;;43.78;27.60;;;;;;;8.64;58.13;102301.28;5112157;28;20049;-92
2022/01/25 03:13:54;;;;;;;42.40;26.27;;;;;;;8.69;58.60;102299.41;5112456;28;20410;-92
2022/01/25 03:16:30;;;;;;;39.75;25.70;;;;;;;8.70;57.89;102298.50;5111953;28;20023;-92
2022/01/25 03:18:58;;;;;;;38.63;24.20;;;;;;;8.66;58.05;102312.56;5112237;28;20476;-91
2022/01/25 03:23:53;;;;;;;41.10;26.23;;;;;;;8.79;57.16;102309.59;5111727;28;20057;-92
2022/01/25 03:26:20;;;;;;;37.88;25.08;;;;;;;8.82;57.74;102304.28;5112339;28;20023;-92
2022/01/25 03:28:45;;;;;;;42.45;26.95;;;;;;;8.80;57.86;102295.59;5094113;28;20063;-92
2022/01/25 03:31:11;;;;;;;39.88;25.58;;;;;;;8.70;57.88;102303.72;5111766;28;20104;-91
2022/01/25 03:33:37;;;;;;;39.47;25.30;;;;;;;8.71;58.61;102297.59;5111712;28;20485;-92
2022/01/25 03:36:04;;;;;;;40.13;25.50;;;;;;;8.71;58.28;102305.47;5094102;28;20023;-92
2022/01/25 03:38:30;;;;;;;38.95;25.10;;;;;;;8.73;58.27;102302.81;5112148;28;20117;-91
2022/01/25 03:40:55;;;;;;;41.00;25.63;;;;;;;8.63;58.73;102309.19;5112028;28;20035;-92
2022/01/25 03:43:21;;;;;;;37.58;22.90;;;;;;;8.66;58.33;102307.34;5093692;28;20027;-92
2022/01/25 03:45:59;;;;;;;33.75;21.27;;;;;;;8.70;58.23;102295.03;5110858;28;20949;-92
2022/01/25 03:50:51;;;;;;;36.33;23.20;;;;;;;8.72;58.43;102304.53;5111823;28;20030;-92
2022/01/25 03:53:19;;;;;;;35.42;23.85;;;;;;;8.72;58.46;102304.53;5112147;28;20016;-91
2022/01/25 03:55:47;;;;;;;37.38;23.15;;;;;;;8.72;58.85;102295.84;5112049;28;20054;-92
2022/01/25 03:58:13;;;;;;;38.00;22.67;;;;;;;8.70;58.77;102285.41;5111507;28;20016;-91
2022/01/25 04:00:40;;;;;;;37.22;24.70;;;;;;;8.74;58.37;102302.72;5111737;28;20034;-91
2022/01/25 04:03:33;;;;;;;36.47;23.17;;;;;;;8.77;57.97;102298.31;5111676;28;20041;-91
2022/01/25 04:05:53;;;;;;;35.40;21.95;;;;;;;8.75;58.35;102290.50;5110692;28;20031;-91
2022/01/25 04:08:19;;;;;;;36.38;22.50;;;;;;;8.72;58.38;102278.34;5093803;28;20019;-91
2022/01/25 04:10:45;;;;;;;36.47;23.15;;;;;;;8.80;58.47;102282.50;5111960;28;20481;-91
2022/01/25 04:13:11;;;;;;;37.28;23.90;;;;;;;8.83;58.87;102290.28;5111409;28;20027;-92
2022/01/25 04:15:43;;;;;;;37.25;23.25;;;;;;;8.80;58.88;102279.88;5111334;28;20042;-91
2022/01/25 04:26:11;;;;;;;45.25;26.17;;;;;;;8.59;58.87;102302.31;5111663;28;20076;-92
2022/01/25 04:28:36;;;;;;;39.70;25.05;;;;;;;8.44;59.54;102294.03;5093543;28;20031;-92
2022/01/25 04:31:02;;;;;;;37.30;24.20;;;;;;;8.40;59.44;102296.75;5111197;28;20023;-92
2022/01/25 04:33:38;;;;;;;36.80;24.75;;;;;;;8.39;58.78;102297.63;5111468;28;20023;-93
2022/01/25 04:49:51;;;;;;;38.20;23.55;;;;;;;8.19;59.19;102293.81;5094963;28;20081;-92
2022/01/25 04:52:20;;;;;;;37.53;23.27;;;;;;;8.17;58.90;102295.63;5094560;28;20431;-92
2022/01/25 04:55:06;;;;;;;38.75;23.90;;;;;;;8.20;58.87;102298.16;5094686;28;20028;-92
2022/01/25 04:57:46;;;;;;;36.80;23.00;;;;;;;8.07;59.00;102288.94;5094384;28;20090;-92
2022/01/25 05:00:18;;;;;;;35.55;22.10;;;;;;;8.09;59.63;102287.13;5105104;28;20039;-92
2022/01/25 05:07:59;;;;;;;33.88;20.77;;;;;;;8.45;58.92;102284.41;5094299;28;20508;-92
2022/01/25 05:10:24;;;;;;;40.58;23.95;;;;;;;8.64;58.17;102285.59;5094187;28;20509;-92
2022/01/25 05:13:10;;;;;;;43.28;25.88;;;;;;;8.51;57.10;102276.38;5094201;28;20162;-92
2022/01/25 05:16:01;;;;;;;42.45;26.63;;;;;;;8.42;58.11;102281.88;5096507;28;20060;-92
2022/01/25 05:18:35;;;;;;;43.85;26.70;;;;;;;8.41;58.34;102283.66;5114369;28;20107;-92
2022/01/25 05:23:45;;;;;;;42.35;25.65;;;;;;;8.31;58.04;102283.03;5114352;28;20027;-92
2022/01/25 05:26:10;;;;;;;37.58;24.25;;;;;;;8.27;58.01;102276.16;5114352;28;20386;-92
2022/01/25 05:28:36;;;;;;;39.92;22.85;;;;;;;8.34;58.10;102271.59;5114269;28;20073;-92
2022/01/25 05:31:01;;;;;;;37.95;22.52;;;;;;;8.39;57.74;102276.69;5107734;28;20032;-92
2022/01/25 05:33:26;;;;;;;35.03;21.67;;;;;;;8.41;57.86;102277.50;5114047;28;20027;-91
2022/01/25 05:35:52;;;;;;;35.00;21.70;;;;;;;8.42;57.79;102274.03;5114125;28;20027;-92
2022/01/25 05:38:17;;;;;;;40.70;22.85;;;;;;;8.42;58.28;102279.28;5096001;28;20022;-91
2022/01/25 05:40:49;;;;;;;44.50;25.65;;;;;;;8.39;57.85;102284.56;5113486;28;20027;-93
2022/01/25 05:48:13;;;;;;;34.85;21.27;;;;;;;8.42;58.51;102268.81;5113348;28;20024;-92
2022/01/25 05:50:39;;;;;;;34.95;21.83;;;;;;;8.44;57.97;102273.09;5095275;28;20400;-91
2022/01/25 05:53:04;;;;;;;36.78;23.48;;;;;;;8.53;58.09;102285.03;5114085;28;20069;-92
2022/01/25 05:55:29;;;;;;;41.20;25.08;;;;;;;8.57;58.32;102278.84;5095538;28;20027;-92
2022/01/25 05:57:55;;;;;;;40.45;24.13;;;;;;;8.54;57.61;102274.53;5095428;28;20062;-92
2022/01/25 06:00:21;;;;;;;38.13;23.10;;;;;;;8.55;57.56;102278.03;5113711;28;20426;-92
2022/01/25 06:02:47;;;;;;;43.28;25.85;;;;;;;8.38;57.89;102267.16;5113713;28;20380;-92
2022/01/25 06:05:13;;;;;;;45.30;26.15;;;;;;;8.39;58.16;102274.06;5113122;28;20027;-92
2022/01/25 06:07:38;;;;;;;38.28;24.50;;;;;;;8.36;57.97;102269.81;5113406;28;20031;-93
2022/01/25 06:10:04;;;;;;;40.38;23.70;;;;;;;8.41;57.74;102269.66;5095409;28;20024;-92
2022/01/25 06:12:29;;;;;;;42.03;25.58;;;;;;;8.50;57.58;102269.44;5113334;28;20110;-91
2022/01/25 06:14:55;;;;;;;39.50;23.80;;;;;;;8.65;57.05;102274.22;5095154;28;20114;-92
2022/01/25 06:17:20;;;;;;;41.08;24.63;;;;;;;8.67;57.11;102280.25;5113402;28;20368;-92
2022/01/25 06:19:46;;;;;;;41.00;24.02;;;;;;;8.67;57.62;102279.41;5113278;28;20509;-92
2022/01/25 06:22:11;;;;;;;44.00;24.20;;;;;;;8.67;57.59;102280.25;5094477;28;20499;-92
2022/01/25 06:24:37;;;;;;;40.78;24.65;;;;;;;8.75;57.08;102277.41;5113062;28;20051;-92
2022/01/25 06:27:02;;;;;;;45.53;26.27;;;;;;;8.78;57.53;102276.47;5113122;28;20023;-93
2022/01/25 06:29:28;;;;;;;36.83;22.02;;;;;;;8.50;58.00;102272.06;5112866;28;20043;-92
2022/01/25 06:31:53;;;;;;;43.05;24.60;;;;;;;8.47;58.46;102283.47;5113233;28;20495;-91
2022/01/25 06:34:19;;;;;;;41.80;23.65;;;;;;;8.54;58.39;102289.38;5094775;28;20028;-91
2022/01/25 06:36:46;;;;;;;42.90;24.65;;;;;;;8.49;58.80;102286.03;5112954;28;20032;-93
2022/01/25 06:39:13;;;;;;;40.40;23.92;;;;;;;8.57;57.72;102298.91;5112849;28;20023;-92
2022/01/25 06:41:38;;;;;;;39.72;23.58;;;;;;;8.53;58.16;102304.25;5112395;28;20066;-92
2022/01/25 06:44:04;;;;;;;38.72;22.33;;;;;;;8.56;57.68;102305.06;5111904;28;20055;-92
2022/01/25 06:46:30;;;;;;;37.63;22.35;;;;;;;8.57;58.28;102298.91;5094072;28;20039;-91
2022/01/25 06:48:55;;;;;;;49.55;24.45;;;;;;;8.30;58.74;102299.63;5112715;28;20024;-90
2022/01/25 06:51:21;;;;;;;41.92;24.23;;;;;;;8.47;58.16;102308.78;5112643;28;20505;-90
2022/01/25 06:53:46;;;;;;;38.60;21.85;;;;;;;8.45;57.52;102307.97;5112530;28;20063;-91
2022/01/25 06:56:11;;;;;;;37.72;22.15;;;;;;;8.44;57.36;102316.72;5111903;28;20020;-91
2022/01/25 06:58:38;;;;;;;43.38;23.42;;;;;;;8.27;57.15;102310.19;5112053;28;20046;-91
2022/01/25 07:01:03;;;;;;;45.13;25.73;;;;;;;8.11;58.15;102290.56;5093988;28;20035;-91
2022/01/25 07:03:29;;;;;;;43.63;24.45;;;;;;;8.04;58.03;102297.72;5094504;28;20031;-90
2022/01/25 07:05:54;;;;;;;43.58;23.95;;;;;;;8.11;58.14;102301.03;5112164;28;20122;-91
2022/01/25 07:08:20;;;;;;;41.65;20.85;;;;;;;8.15;58.12;102307.88;5111724;28;20114;-91
2022/01/25 07:10:45;;;;;;;36.03;20.55;;;;;;;8.09;57.98;102297.59;5111855;28;20035;-91
2022/01/25 07:13:10;;;;;;;40.92;22.88;;;;;;;8.11;57.85;102285.31;5102742;28;20042;-92
2022/01/25 07:15:36;;;;;;;41.72;23.10;;;;;;;8.12;58.59;102289.69;5104286;28;20024;-91
2022/01/25 07:18:02;;;;;;;42.08;23.00;;;;;;;8.22;58.30;102300.75;5112082;28;20043;-92
2022/01/25 07:20:27;;;;;;;40.13;21.13;;;;;;;8.24;57.48;102297.19;5094753;28;20098;-93
2022/01/25 07:22:53;;;;;;;38.80;20.30;;;;;;;8.17;58.17;102298.22;5099351;28;20023;-94
2022/01/25 07:25:19;;;;;;;40.25;23.77;;;;;;;8.19;57.46;102306.91;5113088;28;20020;-92
2022/01/25 07:27:44;;;;;;;40.75;22.77;;;;;;;8.22;57.79;102300.75;5094496;28;20020;-92
2022/01/25 07:30:10;;;;;;;40.13;23.00;;;;;;;8.21;58.18;102292.00;5112936;28;20024;-93
2022/01/25 07:32:35;;;;;;;43.97;21.55;;;;;;;8.20;58.00;102295.56;5111840;28;20078;-93
2022/01/25 07:35:01;;;;;;;42.33;22.23;;;;;;;8.26;58.04;102297.13;5094338;28;20031;-93
2022/01/25 07:37:27;;;;;;;42.58;22.27;;;;;;;8.23;58.42;102300.69;5112767;28;20020;-93
2022/01/25 07:39:52;;;;;;;45.03;23.00;;;;;;;8.24;58.58;102299.78;5111746;28;20027;-96
2022/01/25 07:42:18;;;;;;;38.20;21.45;;;;;;;8.31;58.49;102306.59;5099979;28;20080;-94
2022/01/25 07:44:44;;;;;;;43.50;23.55;;;;;;;8.31;58.24;102301.34;5093698;28;20032;-93
2022/01/25 07:47:10;;;;;;;41.58;23.73;;;;;;;8.33;58.41;102315.25;5111399;28;20026;-95
2022/01/25 07:49:36;;;;;;;37.85;21.70;;;;;;;8.30;57.98;102312.69;5094070;28;20032;-93
2022/01/25 07:52:02;;;;;;;43.42;23.63;;;;;;;8.27;57.91;102315.44;5094253;28;20020;-93
2022/01/25 07:54:28;;;;;;;39.83;21.63;;;;;;;8.18;58.02;102301.72;5112202;28;20031;-93
2022/01/25 07:56:54;;;;;;;42.83;22.95;;;;;;;8.13;58.03;102307.91;5111697;28;20020;-94
2022/01/25 07:59:20;;;;;;;41.33;22.55;;;;;;;8.23;57.70;102311.16;5112058;28;20061;-95
2022/01/25 08:01:46;;;;;;;43.88;24.48;;;;;;;8.16;58.04;102312.22;5093920;28;20107;-95
2022/01/25 08:04:14;;;;;;;46.97;25.08;;;;;;;8.16;57.84;102311.38;5111963;28;20058;-96
2022/01/25 08:06:39;;;;;;;43.35;22.80;;;;;;;8.13;58.25;102315.78;5093739;28;20028;-92
2022/01/25 08:09:06;;;;;;;45.17;24.33;;;;;;;8.11;58.13;102325.41;5112127;28;20660;-94
2022/01/25 08:11:33;;;;;;;41.03;21.77;;;;;;;8.15;58.13;102334.06;5097212;28;20040;-93
2022/01/25 08:14:12;;;;;;;45.35;24.10;;;;;;;8.11;58.57;102332.41;5115717;28;20059;-95
2022/01/25 08:16:40;;;;;;;37.92;20.98;;;;;;;8.14;58.76;102335.81;5097513;28;20019;-91
2022/01/25 08:19:06;;;;;;;43.35;23.25;;;;;;;8.22;58.30;102337.38;5115652;28;20027;-91
2022/01/25 08:21:31;;;;;;;46.25;24.38;;;;;;;8.22;57.95;102330.38;5115227;28;20440;-90
2022/01/25 08:23:57;;;;;;;46.42;25.10;;;;;;;8.19;58.36;102338.31;5115324;28;20084;-90
2022/01/25 08:26:22;;;;;;;43.50;23.33;;;;;;;8.17;57.91;102341.88;5114384;28;20099;-91
2022/01/25 08:28:47;;;;;;;46.28;23.63;;;;;;;8.24;57.85;102354.75;5097032;28;20053;-92
2022/01/25 08:31:13;;;;;;;44.17;24.50;;;;;;;8.17;57.55;102352.34;5083600;28;20518;-92
2022/01/25 08:33:39;;;;;;;50.03;25.90;;;;;;;8.19;57.98;102348.78;5112645;28;20035;-90
2022/01/25 08:36:05;;;;;;;40.35;22.15;;;;;;;8.24;57.84;102357.38;5113891;28;20385;-92
2022/01/25 08:38:31;;;;;;;40.53;20.92;;;;;;;8.23;58.45;102350.41;5114775;28;20129;-92
2022/01/25 08:40:57;;;;;;;43.22;23.13;;;;;;;8.19;58.18;102346.16;5115090;28;20146;-92
2022/01/25 08:43:24;;;;;;;44.13;24.42;;;;;;;8.26;58.25;102357.34;5115176;28;20027;-92
2022/01/25 08:45:49;;;;;;;41.65;22.85;;;;;;;8.32;58.04;102355.41;5120046;28;20068;-91
2022/01/25 08:48:14;;;;;;;40.17;21.42;;;;;;;8.23;58.12;102354.78;5116763;28;20107;-92
2022/01/25 08:50:40;;;;;;;41.95;22.05;;;;;;;8.31;58.14;102365.91;5099124;28;20541;-91
2022/01/25 08:53:07;;;;;;;39.80;21.05;;;;;;;8.29;57.95;102349.38;5115650;28;20020;-92
2022/01/25 08:55:33;;;;;;;41.97;22.58;;;;;;;8.36;57.74;102357.94;5114996;28;20038;-92
2022/01/25 08:57:58;;;;;;;40.83;21.65;;;;;;;8.40;58.20;102362.19;5114457;28;20020;-92
2022/01/25 09:00:24;;;;;;;41.20;21.77;;;;;;;8.33;57.85;102349.28;5114495;28;20461;-91
2022/01/25 09:02:49;;;;;;;34.22;18.95;;;;;;;8.39;57.92;102360.47;5114853;28;20027;-91
2022/01/25 09:05:14;;;;;;;40.35;21.67;;;;;;;8.38;57.43;102366.63;5113944;28;20024;-91
2022/01/25 09:07:40;;;;;;;35.70;21.10;;;;;;;8.24;57.61;102365.22;5114942;28;20540;-92
2022/01/25 09:10:06;;;;;;;39.15;21.05;;;;;;;8.30;57.95;102370.28;5114659;28;20032;-92
2022/01/25 09:12:31;;;;;;;37.38;21.83;;;;;;;8.39;57.68;102363.06;5114632;28;20411;-92
2022/01/25 09:14:57;;;;;;;39.33;20.95;;;;;;;8.38;57.06;102367.47;5114736;28;20031;-93
2022/01/25 09:17:22;;;;;;;37.92;21.05;;;;;;;8.32;57.56;102368.47;5096307;28;20049;-93
2022/01/25 09:19:48;;;;;;;41.28;22.67;;;;;;;8.32;57.04;102362.41;5114513;28;20480;-92
2022/01/25 09:22:13;;;;;;;42.55;23.60;;;;;;;8.31;56.92;102372.03;5113483;28;20023;-92
2022/01/25 09:24:38;;;;;;;37.47;21.08;;;;;;;8.27;57.44;102362.53;5114322;28;20491;-91
2022/01/25 09:27:07;;;;;;;47.00;23.25;;;;;;;8.30;57.36;102367.66;5114029;28;20027;-92
2022/01/25 09:29:33;;;;;;;40.90;21.88;;;;;;;8.21;57.82;102367.06;5114296;28;20053;-91
2022/01/25 09:31:58;;;;;;;41.20;22.73;;;;;;;8.34;56.86;102366.69;5114473;28;20671;-92
2022/01/25 09:34:25;;;;;;;43.95;22.92;;;;;;;8.40;57.59;102375.28;5114087;28;20057;-92
2022/01/25 09:36:51;;;;;;;42.85;22.85;;;;;;;8.46;57.51;102365.53;5114266;28;20027;-92
2022/01/25 09:39:17;;;;;;;42.80;22.20;;;;;;;8.43;57.46;102359.50;5114198;28;20023;-92
2022/01/25 09:41:43;;;;;;;44.08;21.67;;;;;;;8.50;57.55;102361.91;5114210;28;20028;-92
2022/01/25 09:44:09;;;;;;;51.00;26.30;;;;;;;8.41;57.17;102367.44;5113874;28;20440;-92
2022/01/25 09:46:34;;;;;;;44.78;23.70;;;;;;;8.47;57.61;102371.59;5095850;28;20027;-92
2022/01/25 09:49:00;;;;;;;42.78;23.70;;;;;;;8.47;57.28;102362.00;5095606;28;20545;-92
2022/01/25 09:51:26;;;;;;;43.47;24.02;;;;;;;8.60;56.93;102372.13;5113843;28;20042;-92
2022/01/25 09:53:51;;;;;;;43.33;23.45;;;;;;;8.52;57.21;102372.34;5113788;28;20110;-92
2022/01/25 09:56:17;;;;;;;45.90;24.23;;;;;;;8.60;56.78;102387.84;5095593;28;20110;-92
2022/01/25 09:58:44;;;;;;;43.33;21.95;;;;;;;8.59;56.95;102378.25;5113264;28;20032;-92
2022/01/25 10:01:10;;;;;;;48.28;24.75;;;;;;;8.60;57.17;102386.06;5113325;28;20118;-91
2022/01/25 10:03:41;;;;;;;40.78;22.33;;;;;;;8.56;57.36;102381.84;5113504;28;20446;-92
2022/01/25 10:06:16;;;;;;;38.83;21.52;;;;;;;8.58;57.42;102385.25;5095483;28;20077;-92
2022/01/25 10:08:43;;;;;;;42.45;22.40;;;;;;;8.64;56.75;102392.94;5113518;28;20108;-92
2022/01/25 10:11:11;;;;;;;43.38;23.15;;;;;;;8.57;56.94;102388.81;5113622;28;20376;-91
2022/01/25 10:13:44;;;;;;;41.25;22.38;;;;;;;8.58;56.35;102389.66;5113486;28;20027;-92
2022/01/25 10:16:17;;;;;;;41.58;22.38;;;;;;;8.69;56.94;102393.69;5094834;28;20027;-92
2022/01/25 10:18:56;;;;;;;44.33;23.92;;;;;;;8.66;56.79;102390.28;5113403;28;20019;-92
2022/01/25 10:21:30;;;;;;;44.33;23.35;;;;;;;8.65;56.97;102396.41;5095139;28;20381;-92
2022/01/25 10:24:17;;;;;;;45.03;22.67;;;;;;;8.66;56.47;102393.75;5113194;28;20028;-92
2022/01/25 10:26:47;;;;;;;43.63;22.23;;;;;;;8.57;56.81;102388.81;5094898;28;20024;-92
2022/01/25 10:29:21;;;;;;;48.55;24.30;;;;;;;8.68;57.03;102399.81;5094520;28;20059;-91
2022/01/25 10:32:10;;;;;;;45.60;24.63;;;;;;;8.62;56.96;102402.59;5094537;28;20027;-92
2022/01/25 10:34:40;;;;;;;44.25;22.27;;;;;;;8.66;57.18;102404.25;5094356;28;20118;-92
2022/01/25 10:37:13;;;;;;;44.30;22.65;;;;;;;8.73;57.32;102418.88;5112678;28;20020;-92
2022/01/25 10:39:47;;;;;;;48.25;25.10;;;;;;;8.73;56.33;102418.03;5112821;28;20023;-92
2022/01/25 10:42:19;;;;;;;43.50;22.67;;;;;;;8.75;57.11;102416.22;5074274;28;20363;-92
2022/01/25 10:44:58;;;;;;;46.22;24.40;;;;;;;8.80;56.99;102422.19;5074339;28;20027;-93
2022/01/25 10:47:42;;;;;;;45.78;24.48;;;;;;;8.80;57.08;102429.19;5112054;28;20411;-92
2022/01/25 10:50:35;;;;;;;45.00;23.80;;;;;;;8.69;56.44;102430.34;5112870;28;20024;-92
2022/01/25 10:53:10;;;;;;;40.03;23.70;;;;;;;8.71;56.98;102432.94;5104054;28;20035;-92
2022/01/25 10:55:36;;;;;;;49.47;24.80;;;;;;;8.69;56.76;102440.84;5094426;28;20047;-92
2022/01/25 10:58:03;;;;;;;51.17;25.48;;;;;;;8.61;56.17;102441.91;5115085;28;20027;-92
2022/01/25 11:00:34;;;;;;;40.28;20.77;;;;;;;8.60;57.30;102441.06;5112287;28;20035;-93
2022/01/25 11:03:02;;;;;;;48.63;24.88;;;;;;;8.43;57.48;102441.53;5094730;28;20043;-93
2022/01/25 11:05:34;;;;;;;45.40;24.33;;;;;;;8.47;57.19;102444.91;5112537;28;20058;-92
2022/01/25 11:08:12;;;;;;;44.83;23.58;;;;;;;8.55;57.74;102445.59;5094266;28;20091;-92
2022/01/25 11:10:43;;;;;;;41.40;22.90;;;;;;;8.58;57.13;102447.25;5112806;28;20027;-92
2022/01/25 11:13:22;;;;;;;45.95;23.30;;;;;;;8.69;57.21;102447.84;5094300;28;20027;-92
2022/01/25 11:15:48;;;;;;;42.15;22.75;;;;;;;8.64;56.81;102441.84;5111938;28;20023;-92
2022/01/25 11:18:13;;;;;;;47.05;23.42;;;;;;;8.50;57.00;102450.06;5112401;28;20370;-93
2022/01/25 11:20:39;;;;;;;41.38;22.40;;;;;;;8.33;56.73;102440.00;5112285;28;20440;-94
2022/01/25 11:23:05;;;;;;;41.28;20.10;;;;;;;8.51;57.32;102451.78;5112277;28;20073;-92
2022/01/25 11:25:31;;;;;;;41.38;22.48;;;;;;;8.65;56.63;102448.78;5112277;28;20026;-92
2022/01/25 11:27:57;;;;;;;42.83;23.42;;;;;;;8.67;56.81;102449.63;5112422;28;20031;-92
2022/01/25 11:30:23;;;;;;;43.42;23.35;;;;;;;8.59;57.05;102443.72;5112304;28;20043;-93
2022/01/25 11:32:50;;;;;;;42.08;22.13;;;;;;;8.56;56.88;102454.28;5112208;28;20054;-93
2022/01/25 11:35:20;;;;;;;40.40;23.58;;;;;;;8.65;56.55;102449.66;5112323;28;20019;-93
2022/01/25 11:37:47;;;;;;;46.35;24.77;;;;;;;8.80;56.16;102452.75;5112321;28;20027;-92
2022/01/25 11:40:26;;;;;;;46.70;23.30;;;;;;;8.82;56.33;102443.09;5111420;28;20469;-92
2022/01/25 11:42:55;;;;;;;44.42;23.02;;;;;;;8.89;56.23;102442.03;5111626;28;20027;-92
2022/01/25 11:45:24;;;;;;;43.53;23.10;;;;;;;8.90;56.82;102435.88;5113746;28;20023;-92
2022/01/25 11:47:51;;;;;;;46.85;23.83;;;;;;;9.04;56.73;102446.81;5116450;28;20106;-92
2022/01/25 11:50:17;;;;;;;46.35;24.75;;;;;;;8.92;56.54;102434.94;5115893;28;20031;-93
2022/01/25 11:53:07;;;;;;;43.33;22.90;;;;;;;9.06;56.29;102445.03;5099185;28;20016;-92
2022/01/25 11:55:53;;;;;;;40.10;20.48;;;;;;;9.06;56.11;102438.91;5118231;28;20024;-93
2022/01/25 11:58:21;;;;;;;43.75;20.80;;;;;;;9.00;56.58;102434.72;5099017;28;20027;-93
2022/01/25 12:00:51;;;;;;;36.75;19.15;;;;;;;9.05;55.94;102427.59;5098481;28;20040;-92
2022/01/25 12:03:26;;;;;;;39.63;21.33;;;;;;;9.04;56.51;102431.09;5117461;28;20066;-93
2022/01/25 12:06:08;;;;;;;43.15;21.40;;;;;;;9.05;56.35;102421.50;5098622;28;20292;-92
2022/01/25 12:11:41;;;;;;;41.78;21.17;;;;;;;9.07;56.52;102415.28;5115275;28;20119;-92
2022/01/25 12:14:14;;;;;;;44.00;21.40;;;;;;;9.08;56.30;102427.50;5108930;28;20032;-91
2022/01/25 12:16:45;;;;;;;43.97;21.92;;;;;;;9.13;55.75;102422.97;5117491;28;20865;-92
2022/01/25 12:19:16;;;;;;;43.78;21.52;;;;;;;9.20;55.86;102422.78;5117597;28;20023;-92
2022/01/25 12:21:48;;;;;;;43.88;21.92;;;;;;;9.19;56.61;102415.84;5118056;28;20035;-91
2022/01/25 12:24:23;;;;;;;41.78;20.55;;;;;;;9.29;55.72;102409.41;5108425;28;20026;-92
2022/01/25 12:27:07;;;;;;;44.67;20.85;;;;;;;9.16;55.72;102402.81;5117904;28;20023;-91
2022/01/25 12:29:44;;;;;;;42.25;20.70;;;;;;;9.18;55.95;102406.25;5084594;28;20016;-92
2022/01/25 12:32:19;;;;;;;39.00;18.08;;;;;;;9.22;55.91;102397.38;5100686;28;20257;-92
2022/01/25 12:35:06;;;;;;;43.30;20.25;;;;;;;9.31;56.09;102386.63;5095956;28;20057;-91
2022/01/25 12:37:43;;;;;;;48.13;21.95;;;;;;;9.13;56.29;102388.91;5100889;28;20073;-92
2022/01/25 12:40:31;;;;;;;38.78;21.05;;;;;;;9.18;57.08;102390.53;5115474;28;20030;-92
2022/01/25 12:43:00;;;;;;;40.65;21.30;;;;;;;8.97;56.63;102389.41;5111221;28;20484;-92
2022/01/25 12:45:34;;;;;;;46.53;21.10;;;;;;;9.06;56.44;102387.38;5098672;28;20024;-92
2022/01/25 12:48:03;;;;;;;51.28;22.67;;;;;;;9.16;55.97;102387.09;5115412;28;20077;-92
2022/01/25 12:50:29;;;;;;;49.47;24.90;;;;;;;9.15;56.29;102375.75;5115279;28;20107;-92
2022/01/25 12:52:57;;;;;;;44.33;21.13;;;;;;;9.30;55.87;102370.06;5114078;28;20465;-92
2022/01/25 12:55:27;;;;;;;36.40;18.92;;;;;;;9.38;55.95;102376.78;5115131;28;20055;-92
2022/01/25 12:57:54;;;;;;;44.25;21.83;;;;;;;9.42;56.06;102363.56;5113625;28;20451;-92
2022/01/25 13:00:21;;;;;;;44.88;22.73;;;;;;;9.38;55.55;102366.31;5096596;28;20024;-91
2022/01/25 13:02:46;;;;;;;44.22;22.38;;;;;;;9.53;54.94;102361.44;5114777;28;20063;-92
2022/01/25 13:05:24;;;;;;;44.03;22.13;;;;;;;9.51;55.18;102363.25;5114730;28;20090;-92
2022/01/25 13:07:49;;;;;;;39.58;19.85;;;;;;;9.55;55.18;102366.63;5110612;28;20023;-91
2022/01/25 13:10:26;;;;;;;38.75;20.38;;;;;;;9.67;54.63;102362.75;5081755;28;20019;-91